sensor_id;sensor_type;location;lat;lon;timestamp;P1;durP1;ratioP1;P2;durP2;ratioP2
19384;SDS011;9828;54.122;17.974;2024-03-25T00:03:32;9.90;;;5.83;;
19384;SDS011;9828;54.122;17.974;2024-03-25T00:08:53;11.03;;;7.00;;
19384;SDS011;9828;54.122;17.974;2024-03-25T00:14:14;9.40;;;6.20;;
19384;SDS011;9828;54.122;17.974;2024-03-25T00:19:35;11.23;;;5.70;;
19384;SDS011;9828;54.122;17.974;2024-03-25T00:24:55;8.13;;;5.17;;
19384;SDS011;9828;54.122;17.974;2024-03-25T00:30:15;6.67;;;4.57;;
19384;SDS011;9828;54.122;17.974;2024-03-25T00:35:36;6.13;;;4.30;;
19384;SDS011;9828;54.122;17.974;2024-03-25T00:40:56;9.40;;;6.30;;
19384;SDS011;9828;54.122;17.974;2024-03-25T00:46:17;5.67;;;4.40;;
19384;SDS011;9828;54.122;17.974;2024-03-25T00:51:37;7.23;;;4.70;;
19384;SDS011;9828;54.122;17.974;2024-03-25T00:56:58;6.83;;;4.60;;
19384;SDS011;9828;54.122;17.974;2024-03-25T01:02:19;6.23;;;4.70;;
19384;SDS011;9828;54.122;17.974;2024-03-25T01:07:39;9.10;;;5.17;;
19384;SDS011;9828;54.122;17.974;2024-03-25T01:12:59;7.30;;;5.27;;
19384;SDS011;9828;54.122;17.974;2024-03-25T01:18:19;8.07;;;5.30;;
19384;SDS011;9828;54.122;17.974;2024-03-25T01:23:40;10.60;;;6.53;;
19384;SDS011;9828;54.122;17.974;2024-03-25T01:29:00;11.43;;;6.53;;
19384;SDS011;9828;54.122;17.974;2024-03-25T01:34:20;12.10;;;8.20;;
19384;SDS011;9828;54.122;17.974;2024-03-25T01:39:40;8.93;;;6.97;;
19384;SDS011;9828;54.122;17.974;2024-03-25T01:45:00;11.47;;;7.00;;
19384;SDS011;9828;54.122;17.974;2024-03-25T01:50:22;9.20;;;6.67;;
19384;SDS011;9828;54.122;17.974;2024-03-25T01:55:43;10.30;;;7.23;;
19384;SDS011;9828;54.122;17.974;2024-03-25T02:01:04;13.20;;;6.67;;
19384;SDS011;9828;54.122;17.974;2024-03-25T02:06:25;9.20;;;6.23;;
19384;SDS011;9828;54.122;17.974;2024-03-25T02:11:47;11.07;;;7.27;;
19384;SDS011;9828;54.122;17.974;2024-03-25T02:17:08;8.27;;;5.77;;
19384;SDS011;9828;54.122;17.974;2024-03-25T02:22:29;11.27;;;7.53;;
19384;SDS011;9828;54.122;17.974;2024-03-25T02:27:50;12.03;;;7.13;;
19384;SDS011;9828;54.122;17.974;2024-03-25T02:33:10;14.47;;;7.27;;
19384;SDS011;9828;54.122;17.974;2024-03-25T02:38:31;10.37;;;7.23;;
19384;SDS011;9828;54.122;17.974;2024-03-25T02:43:52;11.90;;;8.00;;
19384;SDS011;9828;54.122;17.974;2024-03-25T02:49:13;12.57;;;8.77;;
19384;SDS011;9828;54.122;17.974;2024-03-25T02:54:33;17.93;;;10.67;;
19384;SDS011;9828;54.122;17.974;2024-03-25T02:59:54;12.33;;;8.97;;
19384;SDS011;9828;54.122;17.974;2024-03-25T03:05:15;13.73;;;10.60;;
19384;SDS011;9828;54.122;17.974;2024-03-25T03:10:35;16.23;;;10.53;;
19384;SDS011;9828;54.122;17.974;2024-03-25T03:15:55;15.87;;;10.13;;
19384;SDS011;9828;54.122;17.974;2024-03-25T03:21:16;16.93;;;10.60;;
19384;SDS011;9828;54.122;17.974;2024-03-25T03:26:36;14.10;;;10.47;;
19384;SDS011;9828;54.122;17.974;2024-03-25T03:31:56;13.57;;;9.80;;
19384;SDS011;9828;54.122;17.974;2024-03-25T03:37:16;15.27;;;10.27;;
19384;SDS011;9828;54.122;17.974;2024-03-25T03:42:36;14.27;;;9.40;;
19384;SDS011;9828;54.122;17.974;2024-03-25T03:47:56;14.90;;;10.63;;
19384;SDS011;9828;54.122;17.974;2024-03-25T03:53:16;18.97;;;12.37;;
19384;SDS011;9828;54.122;17.974;2024-03-25T03:58:37;18.20;;;12.07;;
19384;SDS011;9828;54.122;17.974;2024-03-25T04:03:56;16.57;;;12.13;;
19384;SDS011;9828;54.122;17.974;2024-03-25T04:09:16;19.67;;;12.60;;
19384;SDS011;9828;54.122;17.974;2024-03-25T04:14:37;20.53;;;14.07;;
19384;SDS011;9828;54.122;17.974;2024-03-25T04:19:58;21.43;;;15.23;;
19384;SDS011;9828;54.122;17.974;2024-03-25T04:25:27;21.40;;;14.60;;
19384;SDS011;9828;54.122;17.974;2024-03-25T04:30:51;30.17;;;19.70;;
19384;SDS011;9828;54.122;17.974;2024-03-25T04:36:12;24.83;;;15.80;;
19384;SDS011;9828;54.122;17.974;2024-03-25T04:41:32;24.00;;;15.90;;
19384;SDS011;9828;54.122;17.974;2024-03-25T04:46:52;21.93;;;15.43;;
19384;SDS011;9828;54.122;17.974;2024-03-25T04:52:12;23.30;;;15.33;;
19384;SDS011;9828;54.122;17.974;2024-03-25T04:57:36;23.90;;;14.33;;
19384;SDS011;9828;54.122;17.974;2024-03-25T05:02:56;23.03;;;16.57;;
19384;SDS011;9828;54.122;17.974;2024-03-25T05:08:16;20.33;;;13.93;;
19384;SDS011;9828;54.122;17.974;2024-03-25T05:13:37;25.13;;;17.47;;
19384;SDS011;9828;54.122;17.974;2024-03-25T05:18:57;26.30;;;18.70;;
19384;SDS011;9828;54.122;17.974;2024-03-25T05:24:17;25.90;;;16.50;;
19384;SDS011;9828;54.122;17.974;2024-03-25T05:29:38;22.23;;;14.93;;
19384;SDS011;9828;54.122;17.974;2024-03-25T05:34:58;19.73;;;13.83;;
19384;SDS011;9828;54.122;17.974;2024-03-25T05:40:18;18.93;;;13.73;;
19384;SDS011;9828;54.122;17.974;2024-03-25T05:45:39;33.23;;;22.07;;
19384;SDS011;9828;54.122;17.974;2024-03-25T05:56:28;25.60;;;17.73;;
19384;SDS011;9828;54.122;17.974;2024-03-25T06:01:51;20.53;;;14.53;;
19384;SDS011;9828;54.122;17.974;2024-03-25T06:07:12;18.17;;;13.20;;
19384;SDS011;9828;54.122;17.974;2024-03-25T06:12:32;17.33;;;13.70;;
19384;SDS011;9828;54.122;17.974;2024-03-25T06:17:53;24.33;;;17.90;;
19384;SDS011;9828;54.122;17.974;2024-03-25T06:23:21;21.07;;;14.73;;
19384;SDS011;9828;54.122;17.974;2024-03-25T06:28:45;27.07;;;18.03;;
19384;SDS011;9828;54.122;17.974;2024-03-25T06:34:05;17.53;;;13.17;;
19384;SDS011;9828;54.122;17.974;2024-03-25T06:39:37;18.00;;;12.23;;
19384;SDS011;9828;54.122;17.974;2024-03-25T06:44:57;15.67;;;11.43;;
19384;SDS011;9828;54.122;17.974;2024-03-25T06:50:18;19.23;;;12.47;;
19384;SDS011;9828;54.122;17.974;2024-03-25T06:55:39;16.57;;;12.77;;
19384;SDS011;9828;54.122;17.974;2024-03-25T07:01:06;18.30;;;13.93;;
19384;SDS011;9828;54.122;17.974;2024-03-25T07:06:27;18.77;;;14.03;;
19384;SDS011;9828;54.122;17.974;2024-03-25T07:11:48;22.73;;;15.67;;
19384;SDS011;9828;54.122;17.974;2024-03-25T07:17:08;36.63;;;24.10;;
19384;SDS011;9828;54.122;17.974;2024-03-25T07:22:28;30.67;;;20.17;;
19384;SDS011;9828;54.122;17.974;2024-03-25T07:27:49;23.60;;;16.23;;
19384;SDS011;9828;54.122;17.974;2024-03-25T07:33:10;24.43;;;17.30;;
19384;SDS011;9828;54.122;17.974;2024-03-25T07:38:29;28.03;;;17.60;;
19384;SDS011;9828;54.122;17.974;2024-03-25T07:43:49;45.30;;;25.80;;
19384;SDS011;9828;54.122;17.974;2024-03-25T07:49:10;34.60;;;20.37;;
19384;SDS011;9828;54.122;17.974;2024-03-25T07:54:30;31.83;;;17.33;;
19384;SDS011;9828;54.122;17.974;2024-03-25T07:59:51;28.50;;;18.87;;
19384;SDS011;9828;54.122;17.974;2024-03-25T08:05:11;27.40;;;18.90;;
19384;SDS011;9828;54.122;17.974;2024-03-25T08:10:31;27.77;;;19.00;;
19384;SDS011;9828;54.122;17.974;2024-03-25T08:15:52;28.77;;;19.70;;
19384;SDS011;9828;54.122;17.974;2024-03-25T08:21:13;23.83;;;17.03;;
19384;SDS011;9828;54.122;17.974;2024-03-25T08:26:33;21.63;;;15.83;;
19384;SDS011;9828;54.122;17.974;2024-03-25T08:31:54;18.37;;;14.13;;
19384;SDS011;9828;54.122;17.974;2024-03-25T08:37:14;23.67;;;16.20;;
19384;SDS011;9828;54.122;17.974;2024-03-25T08:42:34;22.00;;;16.43;;
19384;SDS011;9828;54.122;17.974;2024-03-25T08:47:55;18.53;;;13.20;;
19384;SDS011;9828;54.122;17.974;2024-03-25T08:53:15;20.50;;;14.03;;
19384;SDS011;9828;54.122;17.974;2024-03-25T08:58:36;18.60;;;13.57;;
19384;SDS011;9828;54.122;17.974;2024-03-25T09:03:56;18.70;;;14.20;;
19384;SDS011;9828;54.122;17.974;2024-03-25T09:09:17;20.63;;;15.33;;
19384;SDS011;9828;54.122;17.974;2024-03-25T09:14:55;17.90;;;13.43;;
19384;SDS011;9828;54.122;17.974;2024-03-25T09:20:16;19.07;;;13.27;;
19384;SDS011;9828;54.122;17.974;2024-03-25T09:25:36;15.20;;;12.67;;
19384;SDS011;9828;54.122;17.974;2024-03-25T09:30:56;19.63;;;13.13;;
19384;SDS011;9828;54.122;17.974;2024-03-25T09:36:16;15.77;;;11.40;;
19384;SDS011;9828;54.122;17.974;2024-03-25T09:41:39;25.40;;;15.40;;
19384;SDS011;9828;54.122;17.974;2024-03-25T09:47:03;20.23;;;13.27;;
19384;SDS011;9828;54.122;17.974;2024-03-25T09:52:24;20.40;;;12.97;;
19384;SDS011;9828;54.122;17.974;2024-03-25T09:57:44;16.03;;;11.53;;
19384;SDS011;9828;54.122;17.974;2024-03-25T10:03:05;13.43;;;9.67;;
19384;SDS011;9828;54.122;17.974;2024-03-25T10:08:26;13.73;;;9.70;;
19384;SDS011;9828;54.122;17.974;2024-03-25T10:13:49;14.20;;;10.03;;
19384;SDS011;9828;54.122;17.974;2024-03-25T10:19:09;10.90;;;9.03;;
19384;SDS011;9828;54.122;17.974;2024-03-25T10:24:37;13.43;;;9.87;;
19384;SDS011;9828;54.122;17.974;2024-03-25T10:30:00;10.30;;;7.90;;
19384;SDS011;9828;54.122;17.974;2024-03-25T10:35:21;13.97;;;9.07;;
19384;SDS011;9828;54.122;17.974;2024-03-25T10:40:45;24.73;;;18.87;;
19384;SDS011;9828;54.122;17.974;2024-03-25T10:46:08;12.97;;;9.27;;
19384;SDS011;9828;54.122;17.974;2024-03-25T10:51:28;17.67;;;9.53;;
19384;SDS011;9828;54.122;17.974;2024-03-25T10:56:50;9.63;;;7.23;;
19384;SDS011;9828;54.122;17.974;2024-03-25T11:02:11;8.27;;;6.00;;
19384;SDS011;9828;54.122;17.974;2024-03-25T11:07:35;10.60;;;7.03;;
19384;SDS011;9828;54.122;17.974;2024-03-25T11:12:57;10.50;;;6.70;;
19384;SDS011;9828;54.122;17.974;2024-03-25T11:18:17;10.67;;;6.73;;
19384;SDS011;9828;54.122;17.974;2024-03-25T11:23:43;10.47;;;7.93;;
19384;SDS011;9828;54.122;17.974;2024-03-25T11:29:07;11.47;;;6.97;;
19384;SDS011;9828;54.122;17.974;2024-03-25T11:34:28;12.30;;;7.83;;
19384;SDS011;9828;54.122;17.974;2024-03-25T11:39:48;12.93;;;9.17;;
19384;SDS011;9828;54.122;17.974;2024-03-25T11:45:21;15.23;;;9.70;;
19384;SDS011;9828;54.122;17.974;2024-03-25T11:50:46;14.20;;;10.10;;
19384;SDS011;9828;54.122;17.974;2024-03-25T11:56:13;83.03;;;45.00;;
19384;SDS011;9828;54.122;17.974;2024-03-25T12:01:33;20.37;;;13.07;;
19384;SDS011;9828;54.122;17.974;2024-03-25T12:06:57;16.53;;;11.17;;
19384;SDS011;9828;54.122;17.974;2024-03-25T12:12:19;13.90;;;9.33;;
19384;SDS011;9828;54.122;17.974;2024-03-25T12:17:40;18.33;;;13.07;;
19384;SDS011;9828;54.122;17.974;2024-03-25T12:23:01;9.27;;;7.20;;
19384;SDS011;9828;54.122;17.974;2024-03-25T12:28:22;13.47;;;10.00;;
19384;SDS011;9828;54.122;17.974;2024-03-25T12:33:43;10.23;;;7.80;;
19384;SDS011;9828;54.122;17.974;2024-03-25T12:39:03;16.17;;;8.73;;
19384;SDS011;9828;54.122;17.974;2024-03-25T12:44:24;18.07;;;10.13;;
19384;SDS011;9828;54.122;17.974;2024-03-25T12:49:45;17.07;;;10.53;;
19384;SDS011;9828;54.122;17.974;2024-03-25T12:55:06;11.13;;;7.20;;
19384;SDS011;9828;54.122;17.974;2024-03-25T13:00:26;13.60;;;8.20;;
19384;SDS011;9828;54.122;17.974;2024-03-25T13:05:47;11.90;;;6.43;;
19384;SDS011;9828;54.122;17.974;2024-03-25T13:11:07;6.60;;;5.47;;
19384;SDS011;9828;54.122;17.974;2024-03-25T13:16:27;7.90;;;6.07;;
19384;SDS011;9828;54.122;17.974;2024-03-25T13:21:48;6.90;;;4.57;;
19384;SDS011;9828;54.122;17.974;2024-03-25T13:27:08;6.37;;;4.40;;
19384;SDS011;9828;54.122;17.974;2024-03-25T13:32:28;6.60;;;5.20;;
19384;SDS011;9828;54.122;17.974;2024-03-25T13:37:49;6.33;;;4.83;;
19384;SDS011;9828;54.122;17.974;2024-03-25T13:43:09;9.80;;;6.77;;
19384;SDS011;9828;54.122;17.974;2024-03-25T13:48:29;14.63;;;7.70;;
19384;SDS011;9828;54.122;17.974;2024-03-25T13:53:50;10.43;;;6.40;;
19384;SDS011;9828;54.122;17.974;2024-03-25T13:59:10;12.17;;;7.07;;
19384;SDS011;9828;54.122;17.974;2024-03-25T14:04:30;30.57;;;20.47;;
19384;SDS011;9828;54.122;17.974;2024-03-25T14:09:51;32.63;;;21.50;;
19384;SDS011;9828;54.122;17.974;2024-03-25T14:15:11;24.33;;;13.97;;
19384;SDS011;9828;54.122;17.974;2024-03-25T14:20:31;15.83;;;9.43;;
19384;SDS011;9828;54.122;17.974;2024-03-25T14:25:51;10.67;;;8.00;;
19384;SDS011;9828;54.122;17.974;2024-03-25T14:31:12;9.67;;;6.67;;
19384;SDS011;9828;54.122;17.974;2024-03-25T14:36:32;5.23;;;4.73;;
19384;SDS011;9828;54.122;17.974;2024-03-25T14:41:53;6.67;;;4.57;;
19384;SDS011;9828;54.122;17.974;2024-03-25T14:47:13;6.87;;;5.40;;
19384;SDS011;9828;54.122;17.974;2024-03-25T14:52:35;7.23;;;5.10;;
19384;SDS011;9828;54.122;17.974;2024-03-25T14:57:56;7.67;;;5.10;;
19384;SDS011;9828;54.122;17.974;2024-03-25T15:03:16;5.80;;;4.60;;
19384;SDS011;9828;54.122;17.974;2024-03-25T15:08:36;7.03;;;5.17;;
19384;SDS011;9828;54.122;17.974;2024-03-25T15:13:58;6.90;;;5.20;;
19384;SDS011;9828;54.122;17.974;2024-03-25T15:19:18;6.43;;;4.33;;
19384;SDS011;9828;54.122;17.974;2024-03-25T15:24:38;5.77;;;4.20;;
19384;SDS011;9828;54.122;17.974;2024-03-25T15:29:59;9.37;;;6.13;;
19384;SDS011;9828;54.122;17.974;2024-03-25T15:35:19;7.80;;;5.37;;
19384;SDS011;9828;54.122;17.974;2024-03-25T15:40:40;10.83;;;5.97;;
19384;SDS011;9828;54.122;17.974;2024-03-25T15:46:01;16.90;;;10.93;;
19384;SDS011;9828;54.122;17.974;2024-03-25T15:51:23;19.10;;;10.63;;
19384;SDS011;9828;54.122;17.974;2024-03-25T15:56:43;17.90;;;9.17;;
19384;SDS011;9828;54.122;17.974;2024-03-25T16:02:05;20.10;;;10.73;;
19384;SDS011;9828;54.122;17.974;2024-03-25T16:07:25;20.73;;;12.43;;
19384;SDS011;9828;54.122;17.974;2024-03-25T16:12:46;20.10;;;10.90;;
19384;SDS011;9828;54.122;17.974;2024-03-25T16:18:06;11.77;;;7.30;;
19384;SDS011;9828;54.122;17.974;2024-03-25T16:23:27;12.87;;;8.00;;
19384;SDS011;9828;54.122;17.974;2024-03-25T16:28:47;14.47;;;9.07;;
19384;SDS011;9828;54.122;17.974;2024-03-25T16:34:09;16.87;;;10.50;;
19384;SDS011;9828;54.122;17.974;2024-03-25T16:39:30;14.17;;;10.10;;
19384;SDS011;9828;54.122;17.974;2024-03-25T16:44:50;18.10;;;9.87;;
19384;SDS011;9828;54.122;17.974;2024-03-25T16:50:11;18.47;;;9.37;;
19384;SDS011;9828;54.122;17.974;2024-03-25T16:55:31;20.00;;;10.33;;
19384;SDS011;9828;54.122;17.974;2024-03-25T17:00:51;18.37;;;8.70;;
19384;SDS011;9828;54.122;17.974;2024-03-25T17:06:11;16.77;;;9.87;;
19384;SDS011;9828;54.122;17.974;2024-03-25T17:11:31;17.37;;;9.87;;
19384;SDS011;9828;54.122;17.974;2024-03-25T17:16:51;22.33;;;12.20;;
19384;SDS011;9828;54.122;17.974;2024-03-25T17:22:11;37.13;;;17.23;;
19384;SDS011;9828;54.122;17.974;2024-03-25T17:27:32;33.37;;;15.93;;
19384;SDS011;9828;54.122;17.974;2024-03-25T17:32:54;23.83;;;11.83;;
19384;SDS011;9828;54.122;17.974;2024-03-25T17:38:15;27.27;;;15.00;;
19384;SDS011;9828;54.122;17.974;2024-03-25T17:43:36;29.83;;;14.93;;
19384;SDS011;9828;54.122;17.974;2024-03-25T17:48:57;25.80;;;13.43;;
19384;SDS011;9828;54.122;17.974;2024-03-25T17:54:17;23.43;;;11.97;;
19384;SDS011;9828;54.122;17.974;2024-03-25T17:59:37;22.53;;;13.90;;
19384;SDS011;9828;54.122;17.974;2024-03-25T18:04:57;40.27;;;22.97;;
19384;SDS011;9828;54.122;17.974;2024-03-25T18:10:17;37.63;;;21.93;;
19384;SDS011;9828;54.122;17.974;2024-03-25T18:15:47;38.80;;;21.73;;
19384;SDS011;9828;54.122;17.974;2024-03-25T18:21:08;33.43;;;19.70;;
19384;SDS011;9828;54.122;17.974;2024-03-25T18:26:28;44.50;;;25.67;;
19384;SDS011;9828;54.122;17.974;2024-03-25T18:31:49;75.03;;;40.43;;
19384;SDS011;9828;54.122;17.974;2024-03-25T18:37:10;55.13;;;28.70;;
19384;SDS011;9828;54.122;17.974;2024-03-25T18:42:31;44.17;;;24.97;;
19384;SDS011;9828;54.122;17.974;2024-03-25T18:47:51;53.70;;;28.67;;
19384;SDS011;9828;54.122;17.974;2024-03-25T18:53:11;110.37;;;50.30;;
19384;SDS011;9828;54.122;17.974;2024-03-25T18:58:32;164.37;;;74.67;;
19384;SDS011;9828;54.122;17.974;2024-03-25T19:03:52;196.47;;;84.40;;
19384;SDS011;9828;54.122;17.974;2024-03-25T19:09:12;135.30;;;65.63;;
19384;SDS011;9828;54.122;17.974;2024-03-25T19:14:33;119.37;;;59.80;;
19384;SDS011;9828;54.122;17.974;2024-03-25T19:19:56;131.43;;;61.93;;
19384;SDS011;9828;54.122;17.974;2024-03-25T19:25:16;120.20;;;58.30;;
19384;SDS011;9828;54.122;17.974;2024-03-25T19:30:39;97.83;;;49.67;;
19384;SDS011;9828;54.122;17.974;2024-03-25T19:35:59;106.50;;;48.07;;
19384;SDS011;9828;54.122;17.974;2024-03-25T19:41:19;83.30;;;42.53;;
19384;SDS011;9828;54.122;17.974;2024-03-25T19:46:40;111.27;;;53.03;;
19384;SDS011;9828;54.122;17.974;2024-03-25T19:52:00;116.97;;;56.17;;
19384;SDS011;9828;54.122;17.974;2024-03-25T19:57:20;117.97;;;55.50;;
19384;SDS011;9828;54.122;17.974;2024-03-25T20:02:41;115.60;;;54.00;;
19384;SDS011;9828;54.122;17.974;2024-03-25T20:08:02;126.07;;;56.47;;
19384;SDS011;9828;54.122;17.974;2024-03-25T20:13:22;123.03;;;56.77;;
19384;SDS011;9828;54.122;17.974;2024-03-25T20:18:43;115.53;;;54.00;;
19384;SDS011;9828;54.122;17.974;2024-03-25T20:24:03;170.13;;;75.33;;
19384;SDS011;9828;54.122;17.974;2024-03-25T20:29:23;185.47;;;83.90;;
19384;SDS011;9828;54.122;17.974;2024-03-25T20:34:43;149.40;;;72.57;;
19384;SDS011;9828;54.122;17.974;2024-03-25T20:40:04;156.43;;;73.67;;
19384;SDS011;9828;54.122;17.974;2024-03-25T20:45:25;149.20;;;73.97;;
19384;SDS011;9828;54.122;17.974;2024-03-25T20:50:45;167.30;;;73.93;;
19384;SDS011;9828;54.122;17.974;2024-03-25T20:56:06;162.40;;;76.67;;
19384;SDS011;9828;54.122;17.974;2024-03-25T21:01:26;141.53;;;67.63;;
19384;SDS011;9828;54.122;17.974;2024-03-25T21:06:46;110.93;;;55.07;;
19384;SDS011;9828;54.122;17.974;2024-03-25T21:12:08;145.93;;;69.03;;
19384;SDS011;9828;54.122;17.974;2024-03-25T21:17:29;171.83;;;73.17;;
19384;SDS011;9828;54.122;17.974;2024-03-25T21:22:50;196.30;;;83.17;;
19384;SDS011;9828;54.122;17.974;2024-03-25T21:28:10;193.33;;;80.23;;
19384;SDS011;9828;54.122;17.974;2024-03-25T21:33:30;192.77;;;80.30;;
19384;SDS011;9828;54.122;17.974;2024-03-25T21:38:51;172.60;;;77.67;;
19384;SDS011;9828;54.122;17.974;2024-03-25T21:44:11;176.40;;;75.80;;
19384;SDS011;9828;54.122;17.974;2024-03-25T21:49:31;150.47;;;63.97;;
19384;SDS011;9828;54.122;17.974;2024-03-25T21:54:52;121.43;;;56.50;;
19384;SDS011;9828;54.122;17.974;2024-03-25T22:00:13;136.47;;;62.70;;
19384;SDS011;9828;54.122;17.974;2024-03-25T22:05:33;120.50;;;57.73;;
19384;SDS011;9828;54.122;17.974;2024-03-25T22:10:53;105.30;;;50.73;;
19384;SDS011;9828;54.122;17.974;2024-03-25T22:16:13;100.10;;;50.27;;
19384;SDS011;9828;54.122;17.974;2024-03-25T22:21:33;95.63;;;48.50;;
19384;SDS011;9828;54.122;17.974;2024-03-25T22:26:53;96.33;;;47.73;;
19384;SDS011;9828;54.122;17.974;2024-03-25T22:32:14;100.10;;;50.90;;
19384;SDS011;9828;54.122;17.974;2024-03-25T22:37:35;98.43;;;46.77;;
19384;SDS011;9828;54.122;17.974;2024-03-25T22:42:57;60.57;;;32.97;;
19384;SDS011;9828;54.122;17.974;2024-03-25T22:48:17;51.90;;;27.43;;
19384;SDS011;9828;54.122;17.974;2024-03-25T22:53:38;47.90;;;25.77;;
19384;SDS011;9828;54.122;17.974;2024-03-25T22:58:58;49.50;;;27.03;;
19384;SDS011;9828;54.122;17.974;2024-03-25T23:04:18;58.90;;;31.53;;
19384;SDS011;9828;54.122;17.974;2024-03-25T23:09:39;69.77;;;34.03;;
19384;SDS011;9828;54.122;17.974;2024-03-25T23:14:59;64.63;;;34.27;;
19384;SDS011;9828;54.122;17.974;2024-03-25T23:20:19;70.40;;;34.83;;
19384;SDS011;9828;54.122;17.974;2024-03-25T23:25:39;83.90;;;37.83;;
19384;SDS011;9828;54.122;17.974;2024-03-25T23:31:01;72.27;;;37.83;;
19384;SDS011;9828;54.122;17.974;2024-03-25T23:36:21;75.17;;;37.37;;
19384;SDS011;9828;54.122;17.974;2024-03-25T23:41:41;68.60;;;35.60;;
19384;SDS011;9828;54.122;17.974;2024-03-25T23:47:01;75.07;;;36.87;;
19384;SDS011;9828;54.122;17.974;2024-03-25T23:52:22;61.73;;;30.77;;
19384;SDS011;9828;54.122;17.974;2024-03-25T23:57:42;55.73;;;27.63;;
